createdAt,value
2018-08-04T00:00:11.564Z,23.7
2018-08-04T00:01:18.780Z,23.7
2018-08-04T00:02:26.001Z,23.6
2018-08-04T00:03:32.937Z,23.6
2018-08-04T00:04:40.152Z,23.6
2018-08-04T00:05:47.092Z,23.6
2018-08-04T00:06:54.313Z,23.6
2018-08-04T00:08:01.529Z,23.6
2018-08-04T00:09:23.399Z,23.5
2018-08-04T00:10:30.614Z,23.5
2018-08-04T00:11:37.555Z,23.5
2018-08-04T00:12:44.768Z,23.5
2018-08-04T00:13:51.981Z,23.5
2018-08-04T00:14:59.199Z,23.5
2018-08-04T00:16:06.412Z,23.5
2018-08-04T00:17:13.628Z,23.4
2018-08-04T00:18:20.839Z,23.4
2018-08-04T00:19:28.052Z,23.4
2018-08-04T00:20:35.269Z,23.4
2018-08-04T00:21:42.484Z,23.3
2018-08-04T00:22:49.699Z,23.3
2018-08-04T00:23:56.915Z,23.4
2018-08-04T00:25:04.131Z,23.3
2018-08-04T00:26:11.346Z,23.3
2018-08-04T00:27:18.286Z,23.3
2018-08-04T00:28:25.503Z,23.3
2018-08-04T00:29:32.716Z,23.2
2018-08-04T00:30:39.931Z,23.2
2018-08-04T00:31:47.149Z,23.2
2018-08-04T00:32:54.369Z,23.2
2018-08-04T00:34:01.588Z,23.2
2018-08-04T00:35:08.800Z,23.1
2018-08-04T00:36:16.013Z,23.1
2018-08-04T00:37:23.232Z,23.1
2018-08-04T00:38:30.442Z,23.1
2018-08-04T00:39:37.391Z,23.1
2018-08-04T00:40:44.604Z,23
2018-08-04T00:41:51.813Z,23
2018-08-04T00:42:59.032Z,23
2018-08-04T00:44:06.245Z,23
2018-08-04T00:45:13.460Z,23
2018-08-04T00:46:20.674Z,23
2018-08-04T00:47:27.627Z,23
2018-08-04T00:48:34.841Z,22.9
2018-08-04T00:49:42.053Z,22.9
2018-08-04T00:50:49.266Z,22.9
2018-08-04T00:51:56.482Z,22.9
2018-08-04T00:53:03.694Z,23
2018-08-04T00:54:10.907Z,22.9
2018-08-04T00:55:18.125Z,22.9
2018-08-04T00:56:25.337Z,22.9
2018-08-04T00:57:32.548Z,23
2018-08-04T00:58:39.760Z,23
2018-08-04T00:59:46.696Z,23
2018-08-04T01:00:53.906Z,23
2018-08-04T01:02:01.119Z,23
2018-08-04T01:03:08.082Z,23
2018-08-04T01:04:15.298Z,23
2018-08-04T01:05:22.518Z,23
2018-08-04T01:06:29.733Z,23
2018-08-04T01:07:36.674Z,22.9
2018-08-04T01:08:43.889Z,22.9
2018-08-04T01:09:51.108Z,22.9
2018-08-04T01:10:58.053Z,22.9
2018-08-04T01:12:05.263Z,22.9
2018-08-04T01:13:12.475Z,22.9
2018-08-04T01:14:19.694Z,22.9
2018-08-04T01:15:26.637Z,22.9
2018-08-04T01:16:33.853Z,22.9
2018-08-04T01:17:41.070Z,22.9
2018-08-04T01:18:48.288Z,22.9
2018-08-04T01:19:54.962Z,22.9
2018-08-04T01:21:02.169Z,22.9
2018-08-04T01:22:09.410Z,22.9
2018-08-04T01:23:16.605Z,22.9
2018-08-04T01:24:23.821Z,22.9
2018-08-04T01:25:31.033Z,22.9
2018-08-04T01:26:38.245Z,22.9
2018-08-04T01:27:45.460Z,22.9
2018-08-04T01:28:52.672Z,22.9
2018-08-04T01:29:59.889Z,22.9
2018-08-04T01:31:07.114Z,22.9
2018-08-04T01:32:14.324Z,22.8
2018-08-04T01:33:21.533Z,22.8
2018-08-04T01:34:28.753Z,22.8
2018-08-04T01:35:35.966Z,22.8
2018-08-04T01:36:43.185Z,22.8
2018-08-04T01:37:50.393Z,22.8
2018-08-04T01:38:57.334Z,22.8
2018-08-04T01:40:04.548Z,22.8
2018-08-04T01:41:11.760Z,22.7
2018-08-04T01:42:18.983Z,22.7
2018-08-04T01:43:26.199Z,22.7
2018-08-04T01:44:33.414Z,22.7
2018-08-04T01:45:40.626Z,22.7
2018-08-04T01:46:47.568Z,22.7
2018-08-04T01:47:55.011Z,22.7
2018-08-04T01:49:02.223Z,22.7
2018-08-04T01:50:09.437Z,22.7
2018-08-04T01:51:16.654Z,22.7
2018-08-04T01:52:23.893Z,22.7
2018-08-04T01:53:30.564Z,22.7
2018-08-04T01:54:37.507Z,22.7
2018-08-04T01:55:44.718Z,22.7
2018-08-04T01:56:51.931Z,22.6
2018-08-04T01:57:59.143Z,22.6
2018-08-04T01:59:06.373Z,22.6
2018-08-04T02:00:13.685Z,22.6
2018-08-04T02:01:20.900Z,22.6
2018-08-04T02:02:28.113Z,22.6
2018-08-04T02:03:35.324Z,22.6
2018-08-04T02:04:42.538Z,22.6
2018-08-04T02:05:49.758Z,22.6
2018-08-04T02:06:56.967Z,22.6
2018-08-04T02:08:04.183Z,22.6
2018-08-04T02:09:11.410Z,22.6
2018-08-04T02:10:18.342Z,22.5
2018-08-04T02:11:25.559Z,22.5
2018-08-04T02:12:32.506Z,22.4
2018-08-04T02:13:39.718Z,22.4
2018-08-04T02:14:46.662Z,22.4
2018-08-04T02:15:53.341Z,22.4
2018-08-04T02:17:00.556Z,22.4
2018-08-04T02:18:07.772Z,22.4
2018-08-04T02:19:14.989Z,22.3
2018-08-04T02:20:22.211Z,22.3
2018-08-04T02:21:29.427Z,22.3
2018-08-04T02:22:36.639Z,22.3
2018-08-04T02:23:43.852Z,22.3
2018-08-04T02:24:51.060Z,22.3
2018-08-04T02:25:58.275Z,22.3
2018-08-04T02:27:05.218Z,22.3
2018-08-04T02:28:12.429Z,22.3
2018-08-04T02:29:19.644Z,22.2
2018-08-04T02:30:26.860Z,22.2
2018-08-04T02:31:34.068Z,22.2
2018-08-04T02:32:41.281Z,22.2
2018-08-04T02:33:48.498Z,22.2
2018-08-04T02:34:55.710Z,22.2
2018-08-04T02:36:02.928Z,22.2
2018-08-04T02:37:10.138Z,22.1
2018-08-04T02:38:17.349Z,22.1
2018-08-04T02:39:24.568Z,22.1
2018-08-04T02:40:31.519Z,22.1
2018-08-04T02:41:38.734Z,22
2018-08-04T02:42:45.949Z,22
2018-08-04T02:43:53.162Z,22
2018-08-04T02:45:00.376Z,22
2018-08-04T02:46:07.593Z,22
2018-08-04T02:47:14.805Z,22
2018-08-04T02:48:22.019Z,22
2018-08-04T02:49:29.233Z,22
2018-08-04T02:50:36.461Z,22
2018-08-04T02:51:43.676Z,22
2018-08-04T02:52:50.886Z,22
2018-08-04T02:53:57.827Z,22
2018-08-04T02:55:05.043Z,22
2018-08-04T02:56:11.982Z,22
2018-08-04T02:57:18.923Z,22
2018-08-04T02:58:26.135Z,22
2018-08-04T02:59:33.350Z,22
2018-08-04T03:00:40.561Z,22
2018-08-04T03:01:47.477Z,22
2018-08-04T03:02:54.697Z,22
2018-08-04T03:04:01.905Z,22
2018-08-04T03:05:09.121Z,22
2018-08-04T03:06:16.338Z,22
2018-08-04T03:07:23.550Z,22
2018-08-04T03:08:30.862Z,22
2018-08-04T03:09:38.277Z,22
2018-08-04T03:10:45.490Z,22
2018-08-04T03:11:52.917Z,22
2018-08-04T03:13:00.136Z,22
2018-08-04T03:14:07.359Z,22
2018-08-04T03:15:14.578Z,22
2018-08-04T03:16:21.513Z,22
2018-08-04T03:17:28.724Z,22
2018-08-04T03:18:35.933Z,22
2018-08-04T03:19:43.157Z,22
2018-08-04T03:20:50.361Z,22
2018-08-04T03:21:57.574Z,21.9
2018-08-04T03:23:04.786Z,21.9
2018-08-04T03:24:12.005Z,22
2018-08-04T03:25:18.943Z,22
2018-08-04T03:26:25.890Z,21.9
2018-08-04T03:27:33.105Z,22
2018-08-04T03:28:40.325Z,22
2018-08-04T03:29:47.537Z,22
2018-08-04T03:30:54.752Z,22
2018-08-04T03:32:01.979Z,22
2018-08-04T03:33:09.189Z,22
2018-08-04T03:34:16.403Z,22
2018-08-04T03:35:23.614Z,22
2018-08-04T03:36:30.556Z,22
2018-08-04T03:37:37.497Z,22
2018-08-04T03:38:44.720Z,21.9
2018-08-04T03:39:51.700Z,21.9
2018-08-04T03:40:58.912Z,21.9
2018-08-04T03:42:06.132Z,21.9
2018-08-04T03:43:13.349Z,21.9
2018-08-04T03:44:20.567Z,21.9
2018-08-04T03:45:27.778Z,22
2018-08-04T03:46:34.988Z,21.9
2018-08-04T03:47:41.931Z,21.9
2018-08-04T03:48:49.142Z,21.9
2018-08-04T03:49:56.354Z,21.9
2018-08-04T03:51:03.565Z,21.9
2018-08-04T03:52:10.809Z,21.9
2018-08-04T03:53:18.007Z,21.9
2018-08-04T03:54:25.226Z,21.8
2018-08-04T03:55:32.440Z,21.8
2018-08-04T03:56:39.654Z,21.8
2018-08-04T03:57:46.593Z,21.8
2018-08-04T03:58:53.805Z,21.8
2018-08-04T04:00:01.012Z,21.8
2018-08-04T04:01:07.715Z,21.7
2018-08-04T04:02:14.931Z,21.7
2018-08-04T04:03:22.146Z,21.7
2018-08-04T04:04:29.362Z,21.7
2018-08-04T04:05:36.578Z,21.7
2018-08-04T04:06:43.897Z,21.6
2018-08-04T04:07:51.440Z,21.6
2018-08-04T04:08:58.653Z,21.6
2018-08-04T04:10:05.866Z,21.6
2018-08-04T04:11:13.081Z,21.6
2018-08-04T04:12:20.291Z,21.6
2018-08-04T04:13:27.510Z,21.6
2018-08-04T04:14:34.724Z,21.6
2018-08-04T04:15:41.936Z,21.5
2018-08-04T04:16:49.181Z,21.6
2018-08-04T04:17:56.392Z,21.6
2018-08-04T04:19:03.616Z,21.6
2018-08-04T04:20:10.826Z,21.6
2018-08-04T04:21:18.035Z,21.6
2018-08-04T04:22:24.974Z,21.6
2018-08-04T04:23:32.202Z,21.7
2018-08-04T04:24:39.416Z,21.8
2018-08-04T04:25:46.635Z,21.8
2018-08-04T04:26:53.843Z,21.8
2018-08-04T04:28:00.794Z,21.8
2018-08-04T04:29:08.033Z,21.8
2018-08-04T04:30:15.251Z,21.8
2018-08-04T04:31:22.467Z,21.8
2018-08-04T04:32:29.677Z,21.8
2018-08-04T04:33:36.894Z,21.8
2018-08-04T04:34:44.106Z,21.8
2018-08-04T04:35:51.319Z,21.8
2018-08-04T04:36:58.628Z,21.9
2018-08-04T04:38:05.996Z,21.9
2018-08-04T04:39:13.209Z,21.9
2018-08-04T04:40:20.146Z,21.9
2018-08-04T04:41:27.363Z,21.9
2018-08-04T04:42:34.576Z,21.9
2018-08-04T04:43:41.797Z,21.9
2018-08-04T04:44:49.011Z,21.9
2018-08-04T04:45:56.233Z,21.9
2018-08-04T04:47:03.447Z,21.9
2018-08-04T04:48:10.666Z,21.8
2018-08-04T04:49:17.880Z,21.8
2018-08-04T04:50:25.093Z,21.8
2018-08-04T04:51:32.305Z,21.8
2018-08-04T04:52:39.249Z,21.8
2018-08-04T04:53:46.466Z,21.8
2018-08-04T04:54:53.675Z,21.8
2018-08-04T04:56:00.891Z,21.8
2018-08-04T04:57:08.112Z,21.8
2018-08-04T04:58:15.328Z,21.8
2018-08-04T04:59:22.542Z,21.8
2018-08-04T05:00:29.756Z,21.8
2018-08-04T05:01:36.978Z,21.8
2018-08-04T05:02:44.184Z,21.8
2018-08-04T05:03:51.400Z,21.8
2018-08-04T05:04:58.611Z,21.8
2018-08-04T05:06:05.826Z,21.8
2018-08-04T05:07:12.776Z,21.8
2018-08-04T05:08:19.977Z,21.8
2018-08-04T05:09:27.201Z,21.8
2018-08-04T05:10:34.413Z,21.8
2018-08-04T05:11:41.627Z,21.8
2018-08-04T05:12:48.846Z,21.9
2018-08-04T05:13:56.069Z,21.9
2018-08-04T05:15:03.276Z,21.9
2018-08-04T05:16:10.501Z,21.9
2018-08-04T05:17:17.713Z,21.9
2018-08-04T05:18:24.929Z,22
2018-08-04T05:19:32.147Z,22
2018-08-04T05:20:39.361Z,22
2018-08-04T05:21:46.575Z,22.1
2018-08-04T05:22:53.788Z,22.1
2018-08-04T05:24:00.733Z,22.1
2018-08-04T05:25:07.949Z,22.2
2018-08-04T05:26:15.166Z,22.2
2018-08-04T05:27:22.379Z,22.2
2018-08-04T05:28:29.580Z,22.2
2018-08-04T05:29:36.797Z,22.2
2018-08-04T05:30:44.011Z,22.2
2018-08-04T05:31:51.231Z,22.3
2018-08-04T05:32:58.479Z,22.4
2018-08-04T05:34:05.698Z,22.5
2018-08-04T05:35:12.636Z,22.6
2018-08-04T05:36:19.850Z,22.6
2018-08-04T05:37:27.103Z,22.7
2018-08-04T05:38:34.467Z,22.7
2018-08-04T05:39:41.678Z,22.8
2018-08-04T05:40:48.891Z,22.8
2018-08-04T05:41:56.105Z,22.9
2018-08-04T05:43:03.330Z,22.9
2018-08-04T05:44:10.547Z,23
2018-08-04T05:45:17.767Z,23
2018-08-04T05:46:24.981Z,23.1
2018-08-04T05:47:32.196Z,23.1
2018-08-04T05:48:39.418Z,23.2
2018-08-04T05:49:46.625Z,23.2
2018-08-04T05:50:53.839Z,23.3
2018-08-04T05:52:01.057Z,23.3
2018-08-04T05:53:08.272Z,23.4
2018-08-04T05:54:15.215Z,23.5
2018-08-04T05:55:22.434Z,23.6
2018-08-04T05:56:29.655Z,23.6
2018-08-04T05:57:36.868Z,23.7
2018-08-04T05:58:44.085Z,23.8
2018-08-04T05:59:51.300Z,23.8
2018-08-04T06:00:58.513Z,23.9
2018-08-04T06:02:05.727Z,24
2018-08-04T06:03:12.682Z,24.1
2018-08-04T06:04:19.943Z,24.2
2018-08-04T06:05:27.156Z,24.3
2018-08-04T06:06:34.098Z,24.4
2018-08-04T06:07:41.314Z,24.6
2018-08-04T06:08:48.528Z,24.7
2018-08-04T06:09:55.194Z,24.8
2018-08-04T06:11:02.417Z,24.9
2018-08-04T06:12:09.653Z,25.1
2018-08-04T06:13:16.868Z,25.3
2018-08-04T06:14:24.082Z,25.4
2018-08-04T06:15:31.348Z,25.5
2018-08-04T06:16:38.566Z,25.7
2018-08-04T06:17:45.784Z,25.8
2018-08-04T06:18:52.998Z,25.8
2018-08-04T06:19:59.946Z,25.9
2018-08-04T06:21:07.158Z,26.1
2018-08-04T06:22:14.389Z,26.2
2018-08-04T06:23:21.601Z,26.3
2018-08-04T06:24:28.822Z,26.5
2018-08-04T06:25:35.789Z,26.6
2018-08-04T06:26:43.013Z,26.7
2018-08-04T06:27:50.229Z,26.8
2018-08-04T06:28:57.452Z,26.9
2018-08-04T06:30:04.665Z,27
2018-08-04T06:31:11.922Z,27.2
2018-08-04T06:32:19.137Z,27.3
2018-08-04T06:33:26.356Z,27.5
2018-08-04T06:34:33.573Z,27.7
2018-08-04T06:35:40.791Z,27.8
2018-08-04T06:36:48.009Z,27.9
2018-08-04T06:37:55.220Z,27.9
2018-08-04T06:39:02.431Z,28
2018-08-04T06:40:09.646Z,28
2018-08-04T06:41:16.859Z,28
2018-08-04T06:42:23.814Z,28.1
2018-08-04T06:43:31.033Z,28.2
2018-08-04T06:44:38.250Z,28.4
2018-08-04T06:45:45.463Z,28.6
2018-08-04T06:46:52.679Z,28.7
2018-08-04T06:47:59.930Z,28.7
2018-08-04T06:49:07.148Z,28.9
2018-08-04T06:50:14.365Z,29
2018-08-04T06:51:21.315Z,29.2
2018-08-04T06:52:28.528Z,29.2
2018-08-04T06:53:35.740Z,29
2018-08-04T06:54:42.963Z,29
2018-08-04T06:55:50.182Z,29
2018-08-04T06:56:57.401Z,29.2
2018-08-04T06:58:04.633Z,29.2
2018-08-04T06:59:11.857Z,29.3
2018-08-04T07:00:19.068Z,29.5
2018-08-04T07:01:26.292Z,29.7
2018-08-04T07:02:33.513Z,29.9
2018-08-04T07:03:41.131Z,30.1
2018-08-04T07:04:48.074Z,30
2018-08-04T07:05:55.293Z,30.2
2018-08-04T07:07:02.513Z,30.3
2018-08-04T07:08:09.735Z,30.6
2018-08-04T07:09:16.957Z,30.8
2018-08-04T07:10:24.190Z,30.9
2018-08-04T07:11:31.395Z,30.9
2018-08-04T07:12:38.621Z,31
2018-08-04T07:13:45.912Z,31.1
2018-08-04T07:14:53.237Z,31.2
2018-08-04T07:16:00.507Z,31.4
2018-08-04T07:17:07.724Z,31.5
2018-08-04T07:18:14.945Z,31.5
2018-08-04T07:19:22.160Z,31.6
2018-08-04T07:20:29.379Z,31.6
2018-08-04T07:21:36.594Z,31.4
2018-08-04T07:22:43.818Z,31.4
2018-08-04T07:23:51.047Z,31.5
2018-08-04T07:24:58.267Z,31.7
2018-08-04T07:26:05.486Z,31.9
2018-08-04T07:27:12.437Z,32.1
2018-08-04T07:28:19.685Z,32.3
2018-08-04T07:29:26.909Z,32.4
2018-08-04T07:30:34.121Z,32.5
2018-08-04T07:31:41.352Z,32.5
2018-08-04T07:32:48.557Z,32.6
2018-08-04T07:33:55.510Z,32.7
2018-08-04T07:35:02.734Z,32.6
2018-08-04T07:36:09.946Z,32.5
2018-08-04T07:37:17.166Z,32.5
2018-08-04T07:38:24.381Z,32.5
2018-08-04T07:39:31.599Z,32.4
2018-08-04T07:40:38.815Z,32.5
2018-08-04T07:41:45.762Z,32.6
2018-08-04T07:42:52.978Z,32.8
2018-08-04T07:44:00.196Z,32.8
2018-08-04T07:45:07.132Z,32.7
2018-08-04T07:46:14.354Z,32.6
2018-08-04T07:47:21.578Z,32.7
2018-08-04T07:48:28.797Z,32.9
2018-08-04T07:49:36.016Z,33.1
2018-08-04T07:50:42.961Z,33.3
2018-08-04T07:51:49.903Z,32.8
2018-08-04T07:52:57.122Z,32.5
2018-08-04T07:54:04.339Z,32.5
2018-08-04T07:55:11.564Z,32.8
2018-08-04T07:56:18.776Z,33.2
2018-08-04T07:57:25.998Z,33.4
2018-08-04T07:58:33.217Z,33.4
2018-08-04T07:59:40.477Z,33.5
2018-08-04T08:00:47.701Z,33.7
2018-08-04T08:01:54.923Z,33.9
2018-08-04T08:03:02.142Z,34.1
2018-08-04T08:04:09.353Z,34.1
2018-08-04T08:05:16.570Z,34.2
2018-08-04T08:06:23.788Z,34.3
2018-08-04T08:07:31.004Z,34.5
2018-08-04T08:08:38.217Z,34.8
2018-08-04T08:09:45.442Z,35
2018-08-04T08:10:53.017Z,34.9
2018-08-04T08:12:00.591Z,34.9
2018-08-04T08:13:07.807Z,34.8
2018-08-04T08:14:15.026Z,34.8
2018-08-04T08:15:22.247Z,34.7
2018-08-04T08:16:29.491Z,34.6
2018-08-04T08:17:36.707Z,34.5
2018-08-04T08:18:43.925Z,34.5
2018-08-04T08:19:50.882Z,34.4
2018-08-04T08:20:58.092Z,34.5
2018-08-04T08:22:05.315Z,34.7
2018-08-04T08:23:12.629Z,35
2018-08-04T08:24:19.728Z,35.4
2018-08-04T08:25:26.947Z,35.3
2018-08-04T08:26:34.173Z,35.2
2018-08-04T08:27:41.399Z,35.1
2018-08-04T08:28:48.340Z,35.3
2018-08-04T08:29:55.558Z,35.2
2018-08-04T08:31:02.778Z,35.6
2018-08-04T08:32:09.999Z,35.2
2018-08-04T08:33:17.226Z,35.1
2018-08-04T08:34:24.186Z,35.4
2018-08-04T08:35:31.406Z,35.7
2018-08-04T08:36:38.629Z,36
2018-08-04T08:37:45.843Z,36
2018-08-04T08:38:53.065Z,35.7
2018-08-04T08:40:00.281Z,35.6
2018-08-04T08:41:07.500Z,35.6
2018-08-04T08:42:14.719Z,35.5
2018-08-04T08:43:21.928Z,35.6
2018-08-04T08:44:29.155Z,35.7
2018-08-04T08:45:36.417Z,35.7
2018-08-04T08:46:43.644Z,36
2018-08-04T08:47:50.873Z,36.3
2018-08-04T08:48:58.097Z,36.5
2018-08-04T08:50:05.320Z,36.8
2018-08-04T08:51:12.756Z,36.9
2018-08-04T08:52:19.976Z,37
2018-08-04T08:53:27.702Z,36.9
2018-08-04T08:54:35.422Z,36.6
2018-08-04T08:55:42.402Z,36.4
2018-08-04T08:56:49.350Z,36.4
2018-08-04T08:57:56.572Z,36.5
2018-08-04T08:59:03.796Z,36.6
2018-08-04T09:00:10.748Z,36.7
2018-08-04T09:01:18.065Z,36.6
2018-08-04T09:02:25.329Z,36.6
2018-08-04T09:03:32.552Z,37
2018-08-04T09:04:39.777Z,37.1
2018-08-04T09:05:47.009Z,36.8
2018-08-04T09:06:54.233Z,36.7
2018-08-04T09:08:01.454Z,36.7
2018-08-04T09:09:08.673Z,36.8
2018-08-04T09:10:16.094Z,36.6
2018-08-04T09:11:23.313Z,36.2
2018-08-04T09:12:30.789Z,35.8
2018-08-04T09:13:38.016Z,35.9
2018-08-04T09:14:45.244Z,35.7
2018-08-04T09:15:52.460Z,35.9
2018-08-04T09:16:59.682Z,35.8
2018-08-04T09:18:06.913Z,36
2018-08-04T09:19:14.132Z,36.3
2018-08-04T09:20:21.077Z,36.4
2018-08-04T09:21:28.032Z,36.6
2018-08-04T09:22:34.979Z,37.1
2018-08-04T09:23:42.198Z,36.8
2018-08-04T09:24:49.420Z,36.5
2018-08-04T09:25:56.643Z,35.9
2018-08-04T09:27:03.861Z,35.7
2018-08-04T09:28:11.083Z,36
2018-08-04T09:29:18.304Z,36.1
2018-08-04T09:30:25.530Z,36.1
2018-08-04T09:31:32.756Z,36.2
2018-08-04T09:32:39.980Z,36.1
2018-08-04T09:33:47.202Z,36
2018-08-04T09:34:54.424Z,36
2018-08-04T09:36:01.647Z,36.1
2018-08-04T09:37:08.866Z,36.2
2018-08-04T09:38:16.093Z,36.5
2018-08-04T09:39:23.310Z,36.8
2018-08-04T09:40:30.540Z,37.1
2018-08-04T09:41:37.762Z,36.9
2018-08-04T09:42:45.038Z,36.8
2018-08-04T09:43:52.260Z,37
2018-08-04T09:44:59.483Z,37.1
2018-08-04T09:46:06.700Z,37
2018-08-04T09:47:13.921Z,36.7
2018-08-04T09:48:21.143Z,35.7
2018-08-04T09:49:28.372Z,35.7
2018-08-04T09:50:35.595Z,36
2018-08-04T09:51:42.821Z,36.1
2018-08-04T09:52:50.047Z,36.2
2018-08-04T09:53:57.276Z,35.9
2018-08-04T09:55:04.498Z,35.7
2018-08-04T09:56:11.723Z,36
2018-08-04T09:57:18.975Z,36.1
2018-08-04T09:58:26.197Z,36.3
2018-08-04T09:59:33.143Z,36.5
2018-08-04T10:00:40.122Z,36.6
2018-08-04T10:01:47.338Z,36.9
2018-08-04T10:02:54.561Z,37.3
2018-08-04T10:04:01.788Z,37.4
2018-08-04T10:05:08.792Z,37.2
2018-08-04T10:06:16.111Z,37.4
2018-08-04T10:07:23.065Z,37.4
2018-08-04T10:08:30.295Z,37.4
2018-08-04T10:09:37.245Z,37.4
2018-08-04T10:10:44.471Z,37.5
2018-08-04T10:11:51.694Z,37.3
2018-08-04T10:12:58.947Z,37.1
2018-08-04T10:14:05.627Z,37.2
2018-08-04T10:15:12.872Z,37.1
2018-08-04T10:16:19.827Z,37.3
2018-08-04T10:17:27.048Z,37.2
2018-08-04T10:18:34.270Z,37.6
2018-08-04T10:19:41.493Z,37.9
2018-08-04T10:20:48.715Z,37.7
2018-08-04T10:21:55.944Z,37.9
2018-08-04T10:23:03.170Z,37.7
2018-08-04T10:24:10.126Z,38
2018-08-04T10:25:17.357Z,37.3
2018-08-04T10:26:24.577Z,37
2018-08-04T10:27:31.809Z,36.9
2018-08-04T10:28:39.034Z,36.9
2018-08-04T10:29:46.266Z,37
2018-08-04T10:30:53.490Z,37.3
2018-08-04T10:32:00.954Z,37.3
2018-08-04T10:33:08.468Z,37.6
2018-08-04T10:34:15.429Z,37.7
2018-08-04T10:35:22.667Z,37.5
2018-08-04T10:36:29.893Z,37.4
2018-08-04T10:37:36.850Z,37.4
2018-08-04T10:38:44.129Z,37.6
2018-08-04T10:39:51.075Z,38.2
2018-08-04T10:40:58.306Z,38.4
2018-08-04T10:42:05.261Z,38.4
2018-08-04T10:43:12.486Z,38.6
2018-08-04T10:44:19.712Z,38.8
2018-08-04T10:45:26.936Z,39
2018-08-04T10:46:34.164Z,39.1
2018-08-04T10:47:41.397Z,38.8
2018-08-04T10:48:48.623Z,38.2
2018-08-04T10:49:55.845Z,37.8
2018-08-04T10:51:02.793Z,37.6
2018-08-04T10:52:10.017Z,38.1
2018-08-04T10:53:17.238Z,38.5
2018-08-04T10:54:24.469Z,38.8
2018-08-04T10:55:31.693Z,38.4
2018-08-04T10:56:38.929Z,38.3
2018-08-04T10:57:46.170Z,38.5
2018-08-04T10:58:53.393Z,38.8
2018-08-04T11:00:00.616Z,39
2018-08-04T11:01:07.849Z,39.3
2018-08-04T11:02:15.078Z,39.3
2018-08-04T11:03:22.308Z,39.1
2018-08-04T11:04:29.537Z,38.4
2018-08-04T11:05:36.761Z,38.7
2018-08-04T11:06:43.983Z,38.8
2018-08-04T11:07:51.201Z,38.6
2018-08-04T11:08:58.431Z,38.8
2018-08-04T11:10:05.656Z,39.4
2018-08-04T11:11:12.885Z,40
2018-08-04T11:12:20.124Z,40.2
2018-08-04T11:13:27.340Z,39.9
2018-08-04T11:14:34.561Z,39.9
2018-08-04T11:15:41.796Z,39.6
2018-08-04T11:16:49.065Z,39.4
2018-08-04T11:17:56.289Z,38.2
2018-08-04T11:19:03.513Z,37.8
2018-08-04T11:20:10.740Z,37.9
2018-08-04T11:21:17.966Z,38.5
2018-08-04T11:22:25.192Z,39
2018-08-04T11:23:32.421Z,39.4
2018-08-04T11:24:39.646Z,39.6
2018-08-04T11:25:47.277Z,38.9
2018-08-04T11:26:54.498Z,38.3
2018-08-04T11:28:01.731Z,38.4
2018-08-04T11:29:08.952Z,38.7
2018-08-04T11:30:16.176Z,39.1
2018-08-04T11:31:23.402Z,39.8
2018-08-04T11:32:30.627Z,39.9
2018-08-04T11:33:37.849Z,39.3
2018-08-04T11:34:45.077Z,39.1
2018-08-04T11:35:52.303Z,39
2018-08-04T11:36:59.532Z,39.3
2018-08-04T11:38:06.762Z,39.5
2018-08-04T11:39:13.983Z,38.9
2018-08-04T11:40:21.210Z,39.2
2018-08-04T11:41:28.442Z,39.8
2018-08-04T11:42:35.662Z,39.8
2018-08-04T11:43:42.891Z,39.7
2018-08-04T11:44:50.125Z,39.3
2018-08-04T11:45:57.348Z,38.1
2018-08-04T11:47:04.572Z,37.5
2018-08-04T11:48:11.797Z,37.3
2018-08-04T11:49:19.016Z,37.3
2018-08-04T11:50:25.966Z,37.4
2018-08-04T11:51:33.256Z,37.1
2018-08-04T11:52:40.706Z,36.9
2018-08-04T11:53:47.970Z,36.5
2018-08-04T11:54:54.923Z,36.4
2018-08-04T11:56:02.159Z,36.4
2018-08-04T11:57:09.474Z,36.3
2018-08-04T11:58:16.720Z,36.5
2018-08-04T11:59:23.975Z,36.6
2018-08-04T12:00:31.214Z,36.9
2018-08-04T12:01:38.438Z,37.1
2018-08-04T12:02:45.665Z,36.8
2018-08-04T12:03:52.623Z,36.6
2018-08-04T12:04:59.846Z,36.7
2018-08-04T12:06:07.070Z,36.5
2018-08-04T12:07:14.321Z,36.5
2018-08-04T12:08:21.544Z,36.5
2018-08-04T12:09:28.856Z,36.5
2018-08-04T12:10:35.824Z,36.5
2018-08-04T12:11:42.787Z,36.6
2018-08-04T12:12:50.028Z,36.8
2018-08-04T12:13:57.262Z,36.7
2018-08-04T12:15:04.498Z,36.9
2018-08-04T12:16:11.728Z,37.5
2018-08-04T12:17:18.951Z,37.8
2018-08-04T12:18:25.909Z,38.3
2018-08-04T12:19:33.139Z,38.7
2018-08-04T12:20:40.359Z,38.7
2018-08-04T12:21:47.315Z,39.2
2018-08-04T12:22:54.542Z,39.6
2018-08-04T12:24:01.770Z,39.6
2018-08-04T12:25:08.745Z,39.5
2018-08-04T12:26:15.971Z,39.4
2018-08-04T12:27:23.194Z,39.4
2018-08-04T12:28:30.420Z,39.5
2018-08-04T12:29:37.655Z,39.4
2018-08-04T12:30:44.884Z,38.8
2018-08-04T12:31:52.105Z,37.9
2018-08-04T12:32:59.325Z,37.3
2018-08-04T12:34:06.562Z,36.7
2018-08-04T12:35:13.782Z,36.3
2018-08-04T12:36:21.030Z,36
2018-08-04T12:37:27.737Z,35.6
2018-08-04T12:38:34.715Z,35.1
2018-08-04T12:39:41.939Z,34.6
2018-08-04T12:40:48.943Z,34.2
2018-08-04T12:41:56.189Z,33.6
2018-08-04T12:43:03.416Z,33.1
2018-08-04T12:44:10.366Z,32.3
2018-08-04T12:45:17.325Z,31.4
2018-08-04T12:46:24.548Z,30.8
2018-08-04T12:47:31.771Z,30.5
2018-08-04T12:48:39.010Z,30.1
2018-08-04T12:49:45.956Z,29.7
2018-08-04T12:50:53.179Z,29.4
2018-08-04T12:52:00.129Z,29.1
2018-08-04T12:53:07.395Z,28.9
2018-08-04T12:54:14.604Z,28.7
2018-08-04T12:55:21.912Z,28.5
2018-08-04T12:56:29.135Z,28.5
2018-08-04T12:57:36.084Z,28.3
2018-08-04T12:58:43.307Z,28.1
2018-08-04T12:59:50.537Z,27.9
2018-08-04T13:00:57.783Z,27.8
2018-08-04T13:02:05.052Z,27.4
2018-08-04T13:03:12.279Z,27.1
2018-08-04T13:04:19.223Z,26.8
2018-08-04T13:05:41.095Z,26.6
2018-08-04T13:06:48.312Z,26.3
2018-08-04T13:07:55.536Z,26.4
2018-08-04T13:09:02.756Z,26.5
2018-08-04T13:10:09.975Z,26.7
2018-08-04T13:11:17.208Z,26.9
2018-08-04T13:12:24.156Z,27.1
2018-08-04T13:13:31.382Z,27.2
2018-08-04T13:14:38.607Z,27.2
2018-08-04T13:15:45.551Z,27.1
2018-08-04T13:16:52.775Z,27.3
2018-08-04T13:17:59.996Z,27.3
2018-08-04T13:19:07.219Z,27.4
2018-08-04T13:20:14.456Z,27.5
2018-08-04T13:21:21.708Z,27.7
2018-08-04T13:22:28.935Z,28.1
2018-08-04T13:23:36.155Z,28.2
2018-08-04T13:24:43.377Z,28.5
2018-08-04T13:25:50.603Z,28.5
2018-08-04T13:26:57.828Z,28.7
2018-08-04T13:28:04.767Z,29
2018-08-04T13:29:11.989Z,29.4
2018-08-04T13:30:19.265Z,29.8
2018-08-04T13:31:26.487Z,30
2018-08-04T13:32:33.711Z,30
2018-08-04T13:33:40.934Z,30.3
2018-08-04T13:34:48.151Z,30.2
2018-08-04T13:35:55.395Z,30.3
2018-08-04T13:37:02.746Z,30.5
2018-08-04T13:38:10.128Z,30.7
2018-08-04T13:39:17.354Z,30.9
2018-08-04T13:40:24.579Z,31
2018-08-04T13:41:31.817Z,30.7
2018-08-04T13:42:39.117Z,30.4
2018-08-04T13:43:46.321Z,30
2018-08-04T13:44:53.546Z,30
2018-08-04T13:46:00.765Z,30.1
2018-08-04T13:47:07.994Z,30.4
2018-08-04T13:48:15.204Z,30.7
2018-08-04T13:49:22.427Z,30.7
2018-08-04T13:50:29.647Z,30.5
2018-08-04T13:51:36.890Z,30.1
2018-08-04T13:52:43.828Z,29.9
2018-08-04T13:53:51.049Z,29.8
2018-08-04T13:54:58.272Z,29.7
2018-08-04T13:56:05.494Z,29.6
2018-08-04T13:57:12.399Z,29.5
2018-08-04T13:58:19.619Z,29.4
2018-08-04T13:59:26.841Z,29.4
2018-08-04T14:00:34.067Z,29.5
2018-08-04T14:01:41.301Z,29.6
2018-08-04T14:02:48.252Z,29.4
2018-08-04T14:03:55.473Z,29.3
2018-08-04T14:05:02.700Z,29.2
2018-08-04T14:06:09.913Z,29.3
2018-08-04T14:07:17.140Z,29.6
2018-08-04T14:08:24.357Z,30.1
2018-08-04T14:09:31.587Z,30.5
2018-08-04T14:10:38.816Z,30.9
2018-08-04T14:11:46.040Z,31.2
2018-08-04T14:12:53.034Z,31.2
2018-08-04T14:14:00.261Z,31.2
2018-08-04T14:15:07.488Z,31.1
2018-08-04T14:16:14.710Z,31.1
2018-08-04T14:17:22.052Z,31.2
2018-08-04T14:18:29.380Z,31.3
2018-08-04T14:19:36.800Z,31.2
2018-08-04T14:20:44.023Z,31
2018-08-04T14:21:51.371Z,30.9
2018-08-04T14:22:58.841Z,30.9
2018-08-04T14:24:06.206Z,30.9
2018-08-04T14:25:13.160Z,31.1
2018-08-04T14:26:20.381Z,31.4
2018-08-04T14:27:27.602Z,31.6
2018-08-04T14:28:34.591Z,31.5
2018-08-04T14:29:41.880Z,31.3
2018-08-04T14:30:49.093Z,31.2
2018-08-04T14:31:56.316Z,31
2018-08-04T14:33:03.541Z,30.9
2018-08-04T14:34:10.775Z,31.2
2018-08-04T14:35:17.734Z,31.5
2018-08-04T14:36:24.966Z,31.6
2018-08-04T14:37:32.189Z,31.7
2018-08-04T14:38:39.407Z,31.8
2018-08-04T14:39:46.632Z,32
2018-08-04T14:40:53.857Z,32.3
2018-08-04T14:42:01.098Z,32.5
2018-08-04T14:43:08.360Z,32.7
2018-08-04T14:44:15.586Z,32.7
2018-08-04T14:45:22.531Z,32.6
2018-08-04T14:46:29.758Z,32.5
2018-08-04T14:47:36.982Z,32.7
2018-08-04T14:48:44.201Z,32.6
2018-08-04T14:49:51.430Z,32.7
2018-08-04T14:50:58.648Z,32.8
2018-08-04T14:52:05.878Z,32.9
2018-08-04T14:53:13.110Z,32.8
2018-08-04T14:54:20.335Z,33
2018-08-04T14:55:27.558Z,33.3
2018-08-04T14:56:34.506Z,33.6
2018-08-04T14:57:41.730Z,33.9
2018-08-04T14:58:48.949Z,34.3
2018-08-04T14:59:56.169Z,34.4
2018-08-04T15:01:03.393Z,34.2
2018-08-04T15:02:10.613Z,34.4
2018-08-04T15:03:17.838Z,34.7